»·PEaware :: DAL522 KSFO-KSLC

DAL522 :: KSFO-KSLC

FLIGHT INFORMATION

Flight Status: Arrived
Operator:
Delta Air Lines
More flights by this operator :: More flights under this callsign
Pilot: Patricio R. (14780)
Aircraft: AIRBUS A320
(A320)
More flights by this aircraft type
Origin: KSFO San Francisco Intl
United States
Destination: KSLC Salt Lake City Intl
United States
More flights between these airports :: More routes between these airports
Route: TRUKN2 MOGEE Q124 BVL WAATS5
File this flight plan on PilotEdge
Remarks: PBN / A1B1C1D1O1S1 DOF / 181008 REG / FFA320 EET / KZLC0040 OPR / DAL PER / C RMK / TCAS SIMBRIEF
Altitude:
(Current/Filed)
35,000ft
Speed:
(Current/Filed)
439kts
Departed: 08-Oct-18 03:03 PM
Arrived: 08-Oct-18 04:31 PM
Distance/Time
Traveled:
519nm/1:27
Distance/Time
To Go:
Arrived

Flight Plot

Page will automatically refresh every two minutes.

Flight plan parsing failed; only flown route is shown


Map Options




Map Legend


Flown Route
Filed Route
Departure Airport
Arrival Airport
Navaid (VOR, NDB)
Fix

Horizontal Profiles

Position Reports

Time Latitude Longitude Heading Altitude Ground
Speed
08-Oct-18 14:52 37.614472 -122.381944 319 17ft 0kts
08-Oct-18 14:53 37.614472 -122.381944 319 17ft 0kts
08-Oct-18 14:54 37.614472 -122.381944 319 17ft 0kts
08-Oct-18 14:55 37.614472 -122.381944 319 17ft 0kts
08-Oct-18 14:56 37.614472 -122.381944 319 17ft 0kts
08-Oct-18 14:57 37.614471 -122.381943 319 17ft 0kts
08-Oct-18 14:58 37.614160 -122.381519 276 17ft 2kts
08-Oct-18 14:59 37.614339 -122.381145 207 17ft 0kts
08-Oct-18 15:00 37.614338 -122.381146 207 17ft 0kts
08-Oct-18 15:01 37.611869 -122.382795 207 18ft 21kts
08-Oct-18 15:02 37.608449 -122.383819 118 19ft 0kts
08-Oct-18 15:03 37.608441 -122.383798 118 19ft 0kts
08-Oct-18 15:04 37.608435 -122.383784 118 19ft 2kts
08-Oct-18 15:05 37.625791 -122.371140 24 412ft 172kts
08-Oct-18 15:06 37.659635 -122.320003 52 3396ft 227kts
08-Oct-18 15:07 37.700438 -122.246071 53 6418ft 280kts
08-Oct-18 15:08 37.755267 -122.180314 32 10224ft 277kts
08-Oct-18 15:09 37.824818 -122.117659 34 11906ft 343kts
08-Oct-18 15:10 37.900440 -122.037675 46 14196ft 367kts
08-Oct-18 15:11 37.967881 -121.938172 46 16449ft 379kts
08-Oct-18 15:12 38.037325 -121.835473 45 18446ft 390kts
08-Oct-18 15:13 38.108667 -121.729591 45 20224ft 401kts
08-Oct-18 15:14 38.181421 -121.621242 45 21867ft 411kts
08-Oct-18 15:15 38.256188 -121.509516 45 23362ft 420kts
08-Oct-18 15:16 38.332539 -121.395001 45 24712ft 429kts
08-Oct-18 15:17 38.407340 -121.274886 47 25923ft 438kts
08-Oct-18 15:18 38.483322 -121.152039 47 27037ft 446kts
08-Oct-18 15:19 38.560132 -121.027361 46 28127ft 449kts
08-Oct-18 15:20 38.636885 -120.902321 46 29327ft 446kts
08-Oct-18 15:21 38.712856 -120.778055 45 30474ft 444kts
08-Oct-18 15:22 38.788458 -120.653921 45 31570ft 442kts
08-Oct-18 15:23 38.863808 -120.529717 44 32584ft 441kts
08-Oct-18 15:24 38.938620 -120.405922 44 33503ft 439kts
08-Oct-18 15:25 39.013105 -120.282193 44 34375ft 437kts
08-Oct-18 15:26 39.086822 -120.159272 44 35052ft 435kts
08-Oct-18 15:27 39.160097 -120.036619 44 35060ft 435kts
08-Oct-18 15:28 39.233663 -119.912997 44 35042ft 435kts
08-Oct-18 15:29 39.306932 -119.789398 44 35034ft 435kts
08-Oct-18 15:30 39.380392 -119.664994 44 35030ft 435kts
08-Oct-18 15:31 39.453483 -119.540732 44 35029ft 435kts
08-Oct-18 15:32 39.526413 -119.416255 44 35039ft 435kts
08-Oct-18 15:33 39.599068 -119.291768 45 35032ft 435kts
08-Oct-18 15:34 39.671535 -119.167111 45 35029ft 435kts
08-Oct-18 15:35 39.744338 -119.041376 45 35029ft 435kts
08-Oct-18 15:36 39.816541 -118.916183 44 35049ft 433kts
08-Oct-18 15:37 39.887066 -118.789677 49 35058ft 436kts
08-Oct-18 15:38 39.944429 -118.650262 52 35024ft 436kts
08-Oct-18 15:39 40.001011 -118.511177 52 35000ft 435kts
08-Oct-18 15:40 40.057569 -118.371428 52 35008ft 436kts
08-Oct-18 15:41 40.112763 -118.234428 53 35019ft 437kts
08-Oct-18 15:42 40.169297 -118.093432 53 35044ft 439kts
08-Oct-18 15:43 40.216927 -117.944297 63 35052ft 454kts
08-Oct-18 15:44 40.253677 -117.786919 63 35042ft 453kts
08-Oct-18 15:45 40.290158 -117.629656 63 35029ft 453kts
08-Oct-18 15:46 40.326523 -117.471745 63 35019ft 452kts
08-Oct-18 15:47 40.362444 -117.314664 63 35012ft 452kts
08-Oct-18 15:48 40.398235 -117.157041 63 35011ft 453kts
08-Oct-18 15:49 40.433874 -116.998970 63 35034ft 452kts
08-Oct-18 15:50 40.469076 -116.841728 63 35052ft 447kts
08-Oct-18 15:51 40.503795 -116.685554 63 35012ft 445kts
08-Oct-18 15:52 40.538229 -116.529545 63 34994ft 444kts
08-Oct-18 15:53 40.568871 -116.371531 73 35001ft 459kts
08-Oct-18 15:54 40.579632 -116.232497 74 34996ft 460kts
08-Oct-18 15:55 40.594560 -116.037385 74 35001ft 461kts
08-Oct-18 15:56 40.604981 -115.897961 74 35007ft 461kts
08-Oct-18 15:57 40.619324 -115.702036 74 35008ft 461kts
08-Oct-18 15:58 40.631353 -115.534088 74 35008ft 462kts
08-Oct-18 15:59 40.641216 -115.393723 74 35007ft 462kts
08-Oct-18 16:00 40.652763 -115.226202 74 34999ft 462kts
08-Oct-18 16:01 40.664134 -115.057631 75 35012ft 462kts
08-Oct-18 16:02 40.675218 -114.889591 76 35011ft 460kts
08-Oct-18 16:03 40.686034 -114.721979 76 34970ft 459kts
08-Oct-18 16:04 40.696559 -114.555076 76 34963ft 459kts
08-Oct-18 16:05 40.704253 -114.386988 78 34981ft 463kts
08-Oct-18 16:06 40.710389 -114.219775 78 34992ft 465kts
08-Oct-18 16:07 40.716383 -114.049461 78 34822ft 466kts
08-Oct-18 16:08 40.722141 -113.878813 78 33849ft 467kts
08-Oct-18 16:09 40.726083 -113.707225 82 32234ft 476kts
08-Oct-18 16:10 40.725838 -113.532080 83 28903ft 484kts
08-Oct-18 16:11 40.725348 -113.353322 84 25084ft 495kts
08-Oct-18 16:12 40.724645 -113.185835 86 22357ft 481kts
08-Oct-18 16:13 40.723686 -113.013895 87 19727ft 460kts
08-Oct-18 16:14 40.722511 -112.848427 88 17170ft 448kts
08-Oct-18 16:15 40.721125 -112.686467 89 15676ft 435kts
08-Oct-18 16:16 40.720134 -112.535811 84 14661ft 383kts
08-Oct-18 16:17 40.740405 -112.405178 76 13312ft 358kts
08-Oct-18 16:18 40.761168 -112.279227 76 12279ft 340kts
08-Oct-18 16:19 40.761999 -112.155088 109 12024ft 344kts
08-Oct-18 16:20 40.692671 -112.085492 176 12019ft 312kts
08-Oct-18 16:21 40.606871 -112.075290 175 12024ft 309kts
08-Oct-18 16:22 40.523996 -112.065457 175 11723ft 284kts
08-Oct-18 16:23 40.446351 -112.056397 175 11044ft 281kts
08-Oct-18 16:24 40.373211 -112.031738 128 11041ft 280kts
08-Oct-18 16:25 40.379840 -111.940066 38 11041ft 291kts
08-Oct-18 16:26 40.446924 -111.924961 337 11018ft 243kts
08-Oct-18 16:27 40.512144 -111.942554 354 9741ft 234kts
08-Oct-18 16:28 40.575950 -111.950099 353 8175ft 230kts
08-Oct-18 16:29 40.637797 -111.957228 352 6949ft 204kts
08-Oct-18 16:30 40.686838 -111.962923 351 5966ft 146kts
08-Oct-18 16:31 40.729155 -111.967844 352 5156ft 155kts
08-Oct-18 16:32 40.770020 -111.972583 352 4327ft 132kts
08-Oct-18 16:33 40.786104 -111.974973 324 4236ft 0kts

Navigation Log

Ident Type
Flight plan parsing failed, navigation log unavailable